Time;durP1;ratioP1;P1;durP2;ratioP2;P2;SDS_P1;SDS_P2;PMS_P1;PMS_P2;Temp;Humidity;BMP_temperature;BMP_pressure;BME280_temperature;BME280_humidity;BME280_pressure;Samples;Min_cycle;Max_cycle;Signal;HPM_P1;HPM_P2
2023/12/12 00:00:14;;;;;;;764.92;325.27;;;;;;;10.09;100.00;97290.75;5012981;28;20041;-55
2023/12/12 00:02:39;;;;;;;645.40;317.73;;;;;;;9.94;100.00;97288.38;5007458;28;20033;-55
2023/12/12 00:05:04;;;;;;;663.38;315.25;;;;;;;9.98;100.00;97283.09;5012552;28;20033;-55
2023/12/12 00:07:30;;;;;;;633.50;315.13;;;;;;;9.77;100.00;97295.47;5014765;28;20075;-56
2023/12/12 00:09:55;;;;;;;680.60;320.90;;;;;;;9.80;100.00;97291.13;5013855;28;20237;-57
2023/12/12 00:12:20;;;;;;;803.63;331.13;;;;;;;9.86;100.00;97299.72;5011713;28;20043;-53
2023/12/12 00:14:46;;;;;;;622.28;319.75;;;;;;;9.88;100.00;97310.09;5015259;28;20033;-55
2023/12/12 00:17:11;;;;;;;725.65;328.13;;;;;;;10.14;100.00;97307.16;5011257;28;20094;-54
2023/12/12 00:19:41;;;;;;;589.53;316.38;;;;;;;9.98;100.00;97308.25;5015001;28;20093;-56
2023/12/12 00:22:06;;;;;;;678.60;322.73;;;;;;;9.85;100.00;97304.91;5012632;28;20330;-56
2023/12/12 00:24:32;;;;;;;649.50;323.63;;;;;;;9.69;100.00;97312.03;5013522;28;20030;-57
2023/12/12 00:26:57;;;;;;;619.33;322.20;;;;;;;9.95;100.00;97316.91;5014253;28;20119;-55
2023/12/12 00:29:22;;;;;;;658.70;326.50;;;;;;;9.85;100.00;97316.19;5012312;28;20142;-55
2023/12/12 00:31:48;;;;;;;698.67;330.10;;;;;;;9.74;100.00;97321.50;5013401;28;20183;-56
2023/12/12 00:34:13;;;;;;;716.55;331.23;;;;;;;9.60;100.00;97321.63;5013593;28;20033;-55
2023/12/12 00:36:38;;;;;;;578.40;285.30;;;;;;;9.79;100.00;97326.63;5014364;28;20037;-55
2023/12/12 00:39:04;;;;;;;626.65;283.65;;;;;;;9.76;100.00;97324.03;5016232;28;20026;-57
2023/12/12 00:41:33;;;;;;;612.50;286.98;;;;;;;9.83;100.00;97333.50;5015238;28;20129;-55
2023/12/12 00:43:58;;;;;;;605.45;287.38;;;;;;;9.87;100.00;97329.13;5017752;28;20025;-57
2023/12/12 00:46:24;;;;;;;601.85;285.38;;;;;;;9.86;100.00;97341.25;5015658;28;20036;-54
2023/12/12 00:48:49;;;;;;;605.67;287.95;;;;;;;9.88;100.00;97341.25;5019248;28;20025;-55
2023/12/12 00:51:14;;;;;;;685.78;294.00;;;;;;;9.80;100.00;97343.06;5015301;28;20095;-55
2023/12/12 00:53:39;;;;;;;591.72;289.52;;;;;;;9.73;100.00;97345.72;5017122;28;20087;-56
2023/12/12 00:56:05;;;;;;;585.92;288.95;;;;;;;9.69;100.00;97330.19;5017341;28;20037;-55
2023/12/12 00:58:30;;;;;;;573.88;289.35;;;;;;;9.60;100.00;97332.00;5017186;28;20540;-54
2023/12/12 01:00:56;;;;;;;608.40;291.67;;;;;;;9.54;100.00;97326.03;5017493;28;20064;-57
2023/12/12 01:03:21;;;;;;;748.00;303.15;;;;;;;9.61;100.00;97331.13;5015835;28;20022;-54
2023/12/12 01:05:46;;;;;;;598.67;290.20;;;;;;;9.51;100.00;97332.94;5018066;28;20046;-54
2023/12/12 01:08:12;;;;;;;785.67;306.05;;;;;;;9.47;100.00;97336.44;5015158;28;20199;-56
2023/12/12 01:10:37;;;;;;;596.78;292.17;;;;;;;9.48;100.00;97340.78;5018242;28;20144;-55
2023/12/12 01:13:04;;;;;;;594.28;292.35;;;;;;;9.33;100.00;97339.19;5018627;28;20040;-54
2023/12/12 01:15:29;;;;;;;616.45;293.40;;;;;;;9.31;100.00;97334.91;5015681;28;20506;-55
2023/12/12 01:17:55;;;;;;;606.90;295.75;;;;;;;9.28;100.00;97340.09;5017904;28;20035;-56
2023/12/12 01:20:20;;;;;;;715.78;301.23;;;;;;;9.31;100.00;97350.47;5016646;28;20029;-55
2023/12/12 01:22:45;;;;;;;594.65;291.33;;;;;;;9.31;100.00;97340.09;5017660;28;20122;-54
2023/12/12 01:25:11;;;;;;;689.15;301.58;;;;;;;9.19;100.00;97346.22;5014177;28;20117;-56
2023/12/12 01:27:36;;;;;;;596.63;292.35;;;;;;;9.23;100.00;97338.41;5018304;28;20377;-55
2023/12/12 01:30:02;;;;;;;603.40;294.63;;;;;;;9.20;100.00;97338.41;5018246;28;20025;-55
2023/12/12 01:32:27;;;;;;;593.40;293.50;;;;;;;9.28;100.00;97342.69;5017460;28;20041;-56
2023/12/12 01:34:53;;;;;;;627.10;295.58;;;;;;;9.27;100.00;97334.03;5018494;28;20038;-55
2023/12/12 01:37:18;;;;;;;737.00;308.83;;;;;;;9.20;100.00;97342.75;5016291;28;20037;-55
2023/12/12 01:39:43;;;;;;;590.10;283.92;;;;;;;8.91;100.00;97344.69;5017600;28;20029;-54
2023/12/12 01:42:08;;;;;;;611.53;288.80;;;;;;;8.96;100.00;97329.97;5016267;28;20073;-55
2023/12/12 01:44:34;;;;;;;598.30;291.67;;;;;;;8.96;100.00;97335.16;5018933;28;20083;-54
2023/12/12 01:46:59;;;;;;;579.28;290.77;;;;;;;8.79;100.00;97342.16;5018077;28;20480;-55
2023/12/12 01:49:25;;;;;;;760.70;306.52;;;;;;;8.78;100.00;97349.09;5016343;28;20038;-54
2023/12/12 01:51:50;;;;;;;622.33;296.30;;;;;;;8.68;100.00;97344.84;5014645;28;20037;-55
2023/12/12 01:54:17;;;;;;;697.13;302.27;;;;;;;8.57;100.00;97347.50;5015961;28;20373;-55
2023/12/12 01:56:47;;;;;;;639.60;297.40;;;;;;;8.42;100.00;97344.09;5017817;28;20041;-57
2023/12/12 01:59:13;;;;;;;656.42;302.25;;;;;;;8.32;100.00;97345.03;5017512;28;20037;-54
2023/12/12 02:01:39;;;;;;;556.15;292.60;;;;;;;8.30;100.00;97338.97;5018045;28;20355;-56
2023/12/12 02:04:05;;;;;;;602.65;296.75;;;;;;;8.29;100.00;97351.06;5019164;28;20460;-54
2023/12/12 02:06:31;;;;;;;559.30;293.75;;;;;;;8.34;100.00;97351.03;5018666;28;20232;-55
2023/12/12 02:08:56;;;;;;;596.10;297.10;;;;;;;8.35;100.00;97347.56;5019374;28;20037;-54
2023/12/12 02:11:22;;;;;;;654.72;304.23;;;;;;;8.27;100.00;97349.34;5018307;28;20045;-55
2023/12/12 02:13:48;;;;;;;602.70;301.40;;;;;;;8.07;100.00;97342.53;5018623;28;20025;-54
2023/12/12 02:16:13;;;;;;;634.92;303.13;;;;;;;8.02;100.00;97339.09;5018226;28;20060;-56
2023/12/12 02:18:39;;;;;;;608.90;304.23;;;;;;;7.84;100.00;97334.81;5018261;28;20021;-55
2023/12/12 02:21:05;;;;;;;569.78;299.10;;;;;;;7.65;100.00;97330.56;5018707;28;20045;-54
2023/12/12 02:23:31;;;;;;;570.65;300.17;;;;;;;7.52;100.00;97328.84;5017614;28;20060;-55
2023/12/12 02:25:59;;;;;;;616.15;304.50;;;;;;;7.38;100.00;97334.91;5018126;28;20342;-54
2023/12/12 02:28:25;;;;;;;633.22;304.77;;;;;;;7.24;100.00;97339.25;5018327;28;20477;-55
2023/12/12 02:30:51;;;;;;;577.67;302.45;;;;;;;7.03;100.00;97331.50;5018987;28;20421;-56
2023/12/12 02:33:17;;;;;;;663.50;309.80;;;;;;;6.96;100.00;97328.88;5017220;28;20477;-56
2023/12/12 02:35:43;;;;;;;559.00;298.42;;;;;;;6.82;100.00;97340.09;5016264;28;20113;-54
2023/12/12 02:38:08;;;;;;;626.05;305.80;;;;;;;6.70;100.00;97328.03;5011516;28;20030;-54
2023/12/12 02:40:33;;;;;;;616.60;307.98;;;;;;;6.59;100.00;97334.88;5016881;28;20119;-56
2023/12/12 02:42:59;;;;;;;577.10;304.27;;;;;;;6.46;100.00;97334.00;5017527;28;20045;-56
2023/12/12 02:45:24;;;;;;;635.70;307.95;;;;;;;6.34;100.00;97330.50;5017261;28;20043;-56
2023/12/12 02:47:50;;;;;;;579.40;287.35;;;;;;;6.33;100.00;97333.97;5017617;28;20025;-55
2023/12/12 02:50:17;;;;;;;605.20;296.30;;;;;;;6.40;100.00;97333.97;5017248;28;20056;-54
2023/12/12 02:52:42;;;;;;;561.95;296.83;;;;;;;6.49;100.00;97321.94;5017269;28;20102;-55
2023/12/12 02:55:08;;;;;;;545.67;290.88;;;;;;;6.64;100.00;97330.56;5016593;28;20044;-54
2023/12/12 02:57:33;;;;;;;563.17;295.33;;;;;;;6.74;100.00;97326.28;5018408;28;20036;-54
2023/12/12 02:59:59;;;;;;;568.80;296.63;;;;;;;6.76;100.00;97332.34;5016909;28;20619;-54
2023/12/12 03:02:24;;;;;;;666.08;306.45;;;;;;;6.83;100.00;97328.88;5016559;28;20033;-56
2023/12/12 03:04:49;;;;;;;547.60;296.67;;;;;;;6.87;100.00;97330.59;5015707;28;20030;-55
2023/12/12 03:07:14;;;;;;;608.65;298.58;;;;;;;6.95;100.00;97332.34;5014940;28;20040;-55
2023/12/12 03:09:40;;;;;;;572.47;301.95;;;;;;;6.96;100.00;97328.88;5017148;28;20305;-56
2023/12/12 03:12:05;;;;;;;565.05;294.33;;;;;;;7.07;100.00;97329.78;5017486;28;20056;-56
2023/12/12 03:14:31;;;;;;;574.25;300.02;;;;;;;7.06;100.00;97325.47;5015062;28;20022;-59
2023/12/12 03:16:59;;;;;;;588.83;306.08;;;;;;;7.06;100.00;97319.41;5017296;28;20049;-56
2023/12/12 03:19:24;;;;;;;644.58;309.13;;;;;;;7.05;100.00;97321.13;5016276;28;20025;-55
2023/12/12 03:21:50;;;;;;;600.70;306.10;;;;;;;7.09;100.00;97315.09;5016735;28;20049;-54
2023/12/12 03:24:17;;;;;;;593.95;303.88;;;;;;;7.16;100.00;97310.78;5015544;28;20039;-54
2023/12/12 03:26:43;;;;;;;552.67;301.35;;;;;;;7.20;100.00;97317.69;5017201;28;20431;-55
2023/12/12 03:29:08;;;;;;;591.55;305.80;;;;;;;7.22;100.00;97313.38;5017247;28;20013;-57
2023/12/12 03:31:33;;;;;;;573.40;302.08;;;;;;;7.12;100.00;97315.09;5015956;28;20040;-56
2023/12/12 03:33:59;;;;;;;576.47;301.88;;;;;;;7.14;100.00;97312.53;5017259;28;20021;-54
2023/12/12 03:36:24;;;;;;;647.97;307.52;;;;;;;7.14;100.00;97315.09;5014593;28;20048;-56
2023/12/12 03:38:50;;;;;;;578.17;303.55;;;;;;;7.05;100.00;97313.38;5016961;28;20431;-55
2023/12/12 03:41:16;;;;;;;595.60;306.52;;;;;;;7.01;100.00;97309.06;5014827;28;20120;-54
2023/12/12 03:43:41;;;;;;;578.92;305.15;;;;;;;6.96;100.00;97318.56;5015596;28;20029;-55
2023/12/12 03:46:10;;;;;;;568.33;303.10;;;;;;;6.94;100.00;97315.13;5016167;28;20412;-56
2023/12/12 03:48:36;;;;;;;566.47;304.70;;;;;;;6.94;100.00;97330.63;5015702;28;20037;-54
2023/12/12 03:51:01;;;;;;;634.95;314.33;;;;;;;6.99;100.00;97327.19;5015863;28;20060;-55
2023/12/12 03:53:26;;;;;;;611.22;309.80;;;;;;;6.99;100.00;97334.94;5015831;28;20536;-54
2023/12/12 03:55:52;;;;;;;586.85;307.52;;;;;;;6.96;100.00;97326.31;5014692;28;20067;-55
2023/12/12 03:58:17;;;;;;;659.90;310.58;;;;;;;6.97;100.00;97333.19;5015373;28;20049;-55
2023/12/12 04:00:42;;;;;;;561.13;310.30;;;;;;;7.05;100.00;97335.81;5009885;28;20045;-55
2023/12/12 04:03:08;;;;;;;581.33;317.33;;;;;;;7.09;100.00;97340.13;5015787;28;20038;-56
2023/12/12 04:05:33;;;;;;;606.58;316.35;;;;;;;7.14;100.00;97341.84;5015342;28;21352;-56
2023/12/12 04:07:58;;;;;;;617.50;315.00;;;;;;;7.09;100.00;97337.53;5015376;28;20108;-57
2023/12/12 04:10:24;;;;;;;661.92;322.13;;;;;;;7.05;100.00;97336.66;5015012;28;20040;-56
2023/12/12 04:12:49;;;;;;;616.50;318.70;;;;;;;7.18;100.00;97334.06;5016418;28;20025;-55
2023/12/12 04:15:15;;;;;;;608.03;314.33;;;;;;;7.21;100.00;97331.47;5018081;28;20025;-55
2023/12/12 04:17:40;;;;;;;568.55;313.08;;;;;;;7.15;100.00;97328.03;5020400;28;20682;-56
2023/12/12 04:20:06;;;;;;;626.80;318.65;;;;;;;7.22;100.00;97330.63;5019287;28;20022;-56
2023/12/12 04:22:31;;;;;;;655.47;321.70;;;;;;;7.35;100.00;97329.75;5019384;28;20037;-56
2023/12/12 04:24:57;;;;;;;564.92;310.25;;;;;;;7.48;100.00;97335.78;5020923;28;20027;-54
2023/12/12 04:27:22;;;;;;;683.78;321.30;;;;;;;7.42;100.00;97334.06;5017464;28;20448;-55
2023/12/12 04:29:47;;;;;;;575.65;312.95;;;;;;;7.44;100.00;97326.28;5019164;28;20115;-56
2023/12/12 04:32:13;;;;;;;559.85;313.55;;;;;;;7.51;100.00;97334.91;5019351;28;20045;-53
2023/12/12 04:34:39;;;;;;;620.10;318.38;;;;;;;7.41;100.00;97329.75;5019307;28;20025;-56
2023/12/12 04:37:04;;;;;;;577.78;314.08;;;;;;;7.41;100.00;97342.69;5020734;28;20543;-54
2023/12/12 04:39:30;;;;;;;619.95;318.20;;;;;;;7.47;100.00;97335.78;5018967;28;20365;-55
2023/12/12 04:41:55;;;;;;;646.45;321.20;;;;;;;7.45;100.00;97327.16;5019375;28;20041;-55
2023/12/12 04:44:21;;;;;;;632.13;319.38;;;;;;;7.45;100.00;97330.59;5018195;28;20060;-56
2023/12/12 04:46:46;;;;;;;597.35;317.63;;;;;;;7.58;100.00;97322.81;5020307;28;20692;-55
2023/12/12 04:49:11;;;;;;;661.47;321.77;;;;;;;7.61;100.00;97328.00;5018344;28;20025;-55
2023/12/12 04:51:37;;;;;;;562.63;312.52;;;;;;;7.49;100.00;97334.03;5019488;28;20064;-56
2023/12/12 04:54:02;;;;;;;594.90;314.48;;;;;;;7.52;100.00;97340.09;5019246;28;20112;-56
2023/12/12 04:56:27;;;;;;;699.88;326.70;;;;;;;7.52;100.00;97341.78;5017643;28;20046;-56
2023/12/12 04:58:53;;;;;;;615.95;319.77;;;;;;;7.53;100.00;97344.38;5019598;28;20034;-56
2023/12/12 05:01:18;;;;;;;646.28;323.85;;;;;;;7.60;100.00;97334.00;5016452;28;20099;-56
2023/12/12 05:03:44;;;;;;;619.72;304.35;;;;;;;7.58;100.00;97346.97;5020577;28;20034;-54
2023/12/12 05:06:09;;;;;;;530.70;296.15;;;;;;;7.61;100.00;97339.19;5018924;28;20230;-55
2023/12/12 05:08:35;;;;;;;584.67;301.45;;;;;;;7.54;100.00;97343.50;5017809;28;20083;-56
2023/12/12 05:11:00;;;;;;;627.92;307.40;;;;;;;7.57;100.00;97340.06;5017897;28;20041;-55
2023/12/12 05:13:26;;;;;;;675.17;312.23;;;;;;;7.52;100.00;97334.91;5018847;28;20033;-54
2023/12/12 05:15:51;;;;;;;563.03;306.65;;;;;;;7.40;100.00;97334.91;5019646;28;20042;-57
2023/12/12 05:18:16;;;;;;;609.60;308.25;;;;;;;7.38;100.00;97331.47;5017936;28;20033;-54
2023/12/12 05:20:42;;;;;;;575.17;305.98;;;;;;;7.37;100.00;97333.19;5019573;28;20095;-56
2023/12/12 05:23:07;;;;;;;585.13;307.40;;;;;;;7.31;100.00;97335.78;5020342;28;20056;-56
2023/12/12 05:25:33;;;;;;;685.63;315.15;;;;;;;7.36;100.00;97338.38;5015201;28;20060;-55
2023/12/12 05:27:59;;;;;;;595.50;308.55;;;;;;;7.36;100.00;97328.03;5017766;28;20029;-55
2023/12/12 05:30:24;;;;;;;683.08;317.42;;;;;;;7.31;100.00;97329.75;5017786;28;20037;-55
2023/12/12 05:32:50;;;;;;;624.67;312.45;;;;;;;7.33;100.00;97326.31;5019460;28;20125;-56
2023/12/12 05:35:15;;;;;;;595.05;315.08;;;;;;;7.57;100.00;97326.28;5019221;28;20032;-55
2023/12/12 05:37:40;;;;;;;575.65;310.55;;;;;;;7.60;100.00;97321.94;5017748;28;20108;-55
2023/12/12 05:40:06;;;;;;;593.67;311.83;;;;;;;7.57;100.00;97328.88;5018886;28;20033;-56
2023/12/12 05:42:31;;;;;;;662.58;318.88;;;;;;;7.56;100.00;97351.28;5016392;28;20095;-54
2023/12/12 05:44:57;;;;;;;586.67;312.00;;;;;;;7.48;100.00;97335.78;5018933;28;20125;-54
2023/12/12 05:47:22;;;;;;;713.50;325.00;;;;;;;7.37;100.00;97333.19;5016685;28;20133;-55
2023/12/12 05:49:48;;;;;;;581.17;313.38;;;;;;;7.24;100.00;97327.16;5019814;28;20026;-56
2023/12/12 05:52:14;;;;;;;589.35;313.38;;;;;;;7.18;100.00;97332.34;5018087;28;20099;-55
2023/12/12 05:54:40;;;;;;;617.97;312.40;;;;;;;7.16;100.00;97322.00;5017072;28;20092;-54
2023/12/12 05:57:05;;;;;;;588.08;314.45;;;;;;;7.13;100.00;97321.16;5017712;28;20456;-55
2023/12/12 05:59:31;;;;;;;622.25;315.90;;;;;;;7.09;100.00;97333.19;5017195;28;20036;-57
2023/12/12 06:01:56;;;;;;;607.60;318.02;;;;;;;6.90;100.00;97338.38;5016145;28;20552;-57
2023/12/12 06:04:22;;;;;;;600.80;318.52;;;;;;;6.94;100.00;97331.47;5017652;28;20029;-56
2023/12/12 06:06:47;;;;;;;603.83;322.88;;;;;;;6.86;100.00;97326.31;5018789;28;20083;-55
2023/12/12 06:09:13;;;;;;;597.03;317.80;;;;;;;6.94;100.00;97333.22;5018051;28;20022;-55
2023/12/12 06:11:40;;;;;;;570.55;315.30;;;;;;;7.02;100.00;97344.44;5018917;28;20080;-55
2023/12/12 06:14:05;;;;;;;583.13;319.52;;;;;;;7.08;100.00;97336.66;5018424;28;20329;-54
2023/12/12 06:16:31;;;;;;;688.13;328.00;;;;;;;7.07;100.00;97341.81;5018059;28;20104;-55
2023/12/12 06:18:57;;;;;;;631.25;321.20;;;;;;;7.13;100.00;97336.66;5019349;28;20052;-54
2023/12/12 06:21:22;;;;;;;619.67;325.10;;;;;;;7.15;100.00;97343.56;5017311;28;20037;-55
2023/12/12 06:23:48;;;;;;;628.33;321.30;;;;;;;7.05;100.00;97341.81;5018769;28;20033;-54
2023/12/12 06:26:14;;;;;;;605.88;324.48;;;;;;;7.06;100.00;97334.94;5018974;28;20074;-55
2023/12/12 06:28:40;;;;;;;601.25;323.23;;;;;;;7.18;100.00;97339.22;5017805;28;20025;-54
2023/12/12 06:31:07;;;;;;;618.42;328.20;;;;;;;7.03;100.00;97333.22;5018026;28;20037;-56
2023/12/12 06:33:32;;;;;;;603.13;322.52;;;;;;;6.98;100.00;97328.03;5016740;28;20024;-54
2023/12/12 06:35:58;;;;;;;613.95;325.67;;;;;;;6.90;100.00;97320.28;5018165;28;20777;-55
2023/12/12 06:38:24;;;;;;;661.42;325.52;;;;;;;6.91;100.00;97321.16;5016912;28;20025;-54
2023/12/12 06:40:49;;;;;;;559.50;320.27;;;;;;;6.70;100.00;97327.16;5017262;28;20334;-54
2023/12/12 06:43:16;;;;;;;622.95;322.02;;;;;;;6.57;100.00;97321.94;5018052;28;20033;-56
2023/12/12 06:45:41;;;;;;;587.88;320.65;;;;;;;6.69;100.00;97325.44;5016914;28;20054;-55
2023/12/12 06:48:07;;;;;;;604.28;321.00;;;;;;;6.72;100.00;97315.09;5018362;28;20121;-56
2023/12/12 06:50:32;;;;;;;663.70;328.33;;;;;;;6.66;100.00;97315.06;5016363;28;20072;-54
2023/12/12 06:52:57;;;;;;;598.42;324.05;;;;;;;6.82;100.00;97319.41;5019046;28;20033;-55
2023/12/12 06:55:22;;;;;;;609.03;325.23;;;;;;;6.92;100.00;97316.81;5016540;28;20055;-56
2023/12/12 06:57:48;;;;;;;600.95;325.55;;;;;;;7.01;100.00;97317.69;5018475;28;20017;-55
2023/12/12 07:00:14;;;;;;;573.08;320.58;;;;;;;6.90;100.00;97322.00;5017070;28;20049;-54
2023/12/12 07:02:40;;;;;;;657.50;327.60;;;;;;;6.98;100.00;97322.00;5017036;28;20033;-54
2023/12/12 07:05:05;;;;;;;628.42;327.55;;;;;;;7.05;100.00;97323.72;5017220;28;20029;-55
2023/12/12 07:07:32;;;;;;;636.55;328.95;;;;;;;7.30;100.00;97323.72;5016764;28;20412;-55
2023/12/12 07:09:58;;;;;;;602.60;325.58;;;;;;;7.26;100.00;97325.44;5017705;28;20036;-54
2023/12/12 07:12:24;;;;;;;659.53;333.08;;;;;;;7.26;100.00;97317.69;5015643;28;20041;-53
2023/12/12 07:14:50;;;;;;;577.63;312.45;;;;;;;6.96;100.00;97323.72;5018573;28;20060;-54
2023/12/12 07:17:15;;;;;;;587.00;317.38;;;;;;;6.96;100.00;97315.97;5017800;28;20583;-55
2023/12/12 07:19:41;;;;;;;620.30;321.35;;;;;;;6.94;100.00;97309.94;5016976;28;20861;-56
2023/12/12 07:22:06;;;;;;;567.75;314.90;;;;;;;7.10;100.00;97308.22;5016993;28;20033;-54
2023/12/12 07:24:32;;;;;;;606.92;320.25;;;;;;;7.25;100.00;97307.34;5016699;28;20226;-54
2023/12/12 07:26:57;;;;;;;631.15;320.02;;;;;;;7.43;100.00;97301.28;5017037;28;20041;-55
2023/12/12 07:29:22;;;;;;;574.53;319.33;;;;;;;7.46;100.00;97308.19;5016939;28;20317;-55
2023/12/12 07:31:48;;;;;;;614.72;318.88;;;;;;;7.60;100.00;97311.59;5016622;28;20041;-55
2023/12/12 07:34:13;;;;;;;628.75;324.85;;;;;;;7.43;100.00;97303.88;5017624;28;20028;-56
2023/12/12 07:36:39;;;;;;;656.95;327.77;;;;;;;7.47;100.00;97296.97;5015497;28;20065;-56
2023/12/12 07:39:05;;;;;;;603.90;321.63;;;;;;;7.26;100.00;97299.59;5017671;28;20027;-55
2023/12/12 07:41:35;;;;;;;740.28;338.30;;;;;;;7.57;100.00;97309.00;5012831;28;20116;-56
2023/12/12 07:44:00;;;;;;;583.95;324.20;;;;;;;7.53;100.00;97307.28;5016749;28;20040;-54
2023/12/12 07:46:26;;;;;;;655.78;328.25;;;;;;;7.31;100.00;97299.56;5016270;28;20041;-57
2023/12/12 07:48:51;;;;;;;679.88;336.38;;;;;;;7.19;100.00;97309.94;5015599;28;20076;-54
2023/12/12 07:51:17;;;;;;;617.05;331.05;;;;;;;7.11;100.00;97302.16;5016709;28;20037;-56
2023/12/12 07:53:42;;;;;;;568.95;326.67;;;;;;;7.26;100.00;97301.28;5016558;28;20516;-56
2023/12/12 07:56:08;;;;;;;598.45;329.60;;;;;;;7.46;100.00;97298.66;5016245;28;20480;-56
2023/12/12 07:58:33;;;;;;;658.75;330.55;;;;;;;7.40;100.00;97293.53;5015272;28;20112;-55
2023/12/12 08:00:59;;;;;;;597.67;324.63;;;;;;;7.62;100.00;97296.06;5016196;28;20129;-55
2023/12/12 08:03:25;;;;;;;661.88;334.27;;;;;;;7.98;100.00;97295.94;5015227;28;20079;-55
2023/12/12 08:05:50;;;;;;;587.08;321.80;;;;;;;8.08;100.00;97292.44;5017184;28;20034;-55
2023/12/12 08:08:15;;;;;;;548.83;323.83;;;;;;;8.13;100.00;97290.69;5016282;28;20446;-55
2023/12/12 08:10:41;;;;;;;643.58;327.60;;;;;;;8.37;100.00;97296.63;5014631;28;20103;-56
2023/12/12 08:13:08;;;;;;;626.05;323.80;;;;;;;8.50;100.00;97286.19;5017261;28;20041;-55
2023/12/12 08:15:33;;;;;;;655.03;330.33;;;;;;;8.22;100.00;97284.59;5014863;28;20037;-54
2023/12/12 08:17:59;;;;;;;587.53;301.80;;;;;;;8.64;100.00;97291.31;5016222;28;20033;-56
2023/12/12 08:20:25;;;;;;;607.85;308.80;;;;;;;8.85;100.00;97287.69;5014336;28;20030;-54
2023/12/12 08:22:51;;;;;;;594.38;310.73;;;;;;;8.87;100.00;97277.31;5016579;28;20033;-55
2023/12/12 08:25:16;;;;;;;622.25;315.58;;;;;;;8.55;100.00;97284.44;5016390;28;20014;-56
2023/12/12 08:27:42;;;;;;;674.83;319.17;;;;;;;8.46;100.00;97283.59;5015870;28;20026;-55
2023/12/12 08:30:08;;;;;;;594.10;308.95;;;;;;;8.78;100.00;97284.28;5016406;28;20029;-56
2023/12/12 08:32:35;;;;;;;664.13;317.75;;;;;;;8.93;100.00;97285.03;5014743;28;20046;-56
2023/12/12 08:35:00;;;;;;;609.60;313.88;;;;;;;8.89;100.00;97279.03;5016891;28;20025;-55
2023/12/12 08:37:26;;;;;;;622.97;315.73;;;;;;;8.83;100.00;97277.31;5015660;28;20049;-57
2023/12/12 08:39:51;;;;;;;612.17;317.50;;;;;;;8.80;100.00;97286.88;5015348;28;20053;-56
2023/12/12 08:42:16;;;;;;;626.05;318.85;;;;;;;8.87;100.00;97285.09;5015923;28;20073;-54
2023/12/12 08:44:42;;;;;;;710.78;328.60;;;;;;;9.02;100.00;97276.31;5015372;28;20433;-56
2023/12/12 08:47:07;;;;;;;611.83;320.33;;;;;;;8.97;100.00;97274.63;5015842;28;20100;-55
2023/12/12 08:49:37;;;;;;;663.92;325.10;;;;;;;8.98;100.00;97271.16;5015034;28;20034;-54
2023/12/12 08:52:04;;;;;;;575.50;319.42;;;;;;;9.46;100.00;97272.44;5019267;28;20030;-55
2023/12/12 08:54:29;;;;;;;621.53;323.17;;;;;;;9.43;100.00;97267.28;5017727;28;20071;-56
2023/12/12 08:56:55;;;;;;;575.72;318.80;;;;;;;9.28;100.00;97265.69;5019191;28;20037;-55
2023/12/12 08:59:23;;;;;;;631.67;318.48;;;;;;;9.40;100.00;97256.94;5019487;28;20098;-56
2023/12/12 09:01:48;;;;;;;565.30;314.35;;;;;;;9.60;100.00;97250.66;5022325;28;20029;-55
2023/12/12 09:04:16;;;;;;;570.40;312.30;;;;;;;9.81;100.00;97239.19;5023864;28;20018;-57
2023/12/12 09:06:42;;;;;;;714.53;319.90;;;;;;;10.18;100.00;97239.56;5021032;28;20056;-56
2023/12/12 09:09:08;;;;;;;553.25;305.38;;;;;;;10.35;100.00;97232.38;5024140;28;20060;-55
2023/12/12 09:11:35;;;;;;;637.75;315.45;;;;;;;10.27;100.00;97231.63;5021340;28;20389;-56
2023/12/12 09:14:01;;;;;;;583.00;309.65;;;;;;;10.37;100.00;97235.81;5023134;28;20025;-54
2023/12/12 09:16:26;;;;;;;588.90;307.30;;;;;;;10.35;100.00;97247.13;5023048;28;20072;-55
2023/12/12 09:18:51;;;;;;;611.28;309.20;;;;;;;10.04;100.00;97235.41;5022193;28;20040;-54
2023/12/12 09:21:17;;;;;;;631.50;314.55;;;;;;;9.95;100.00;97227.75;5022355;28;20509;-56
2023/12/12 09:23:42;;;;;;;625.22;293.77;;;;;;;9.72;100.00;97234.06;5021946;28;20032;-54
2023/12/12 09:26:14;;;;;;;569.00;294.30;;;;;;;9.60;100.00;97238.53;5022744;28;20456;-54
2023/12/12 09:28:43;;;;;;;664.00;306.48;;;;;;;9.69;100.00;97249.72;5020624;28;20112;-54
2023/12/12 09:31:09;;;;;;;576.55;298.63;;;;;;;9.66;100.00;97252.34;5022336;28;20476;-53
2023/12/12 09:33:35;;;;;;;655.40;307.10;;;;;;;9.95;100.00;97244.16;5021311;28;20056;-55
2023/12/12 09:36:01;;;;;;;533.20;296.55;;;;;;;9.92;100.00;97235.56;5021815;28;20425;-54
2023/12/12 09:38:26;;;;;;;568.72;302.00;;;;;;;9.96;100.00;97224.25;5023043;28;20037;-55
2023/12/12 09:40:52;;;;;;;601.13;301.58;;;;;;;10.19;100.00;97221.34;5020919;28;20057;-54
2023/12/12 09:43:18;;;;;;;569.17;302.73;;;;;;;10.48;100.00;97211.44;5022399;28;20424;-52
2023/12/12 09:45:47;;;;;;;623.22;288.33;;;;;;;10.69;100.00;97212.81;5021008;28;20172;-53
2023/12/12 09:48:14;;;;;;;635.90;284.38;;;;;;;10.68;100.00;97208.50;5021018;28;20192;-54
2023/12/12 09:50:41;;;;;;;660.97;293.35;;;;;;;10.96;100.00;97178.56;5019936;28;20037;-58
2023/12/12 09:53:08;;;;;;;545.25;284.35;;;;;;;11.54;100.00;97166.19;5022634;28;20352;-57
2023/12/12 09:55:33;;;;;;;617.53;284.38;;;;;;;11.28;100.00;97166.72;5020094;28;20122;-54
2023/12/12 09:57:59;;;;;;;572.28;279.63;;;;;;;10.99;100.00;97170.72;5021771;28;20022;-54
2023/12/12 10:00:24;;;;;;;570.95;283.35;;;;;;;11.14;100.00;97165.22;5021105;28;20065;-55
2023/12/12 10:02:55;;;;;;;567.83;283.38;;;;;;;9.81;100.00;97170.78;5020518;28;20105;-52
2023/12/12 10:05:20;;;;;;;561.95;285.25;;;;;;;9.44;100.00;97160.00;5021517;28;20394;-56
2023/12/12 10:07:47;;;;;;;647.00;302.42;;;;;;;9.22;100.00;97154.19;5020811;28;20468;-57
2023/12/12 10:10:13;;;;;;;557.25;287.10;;;;;;;9.05;100.00;97152.63;5021420;28;20021;-57
2023/12/12 10:12:39;;;;;;;636.72;293.60;;;;;;;9.17;100.00;97156.81;5020261;28;20022;-57
2023/12/12 10:15:21;;;;;;;595.15;307.10;;;;;;;9.01;100.00;97150.97;5021290;28;20026;-57
2023/12/12 10:17:46;;;;;;;618.00;294.02;;;;;;;9.01;100.00;97155.31;5020605;28;20025;-56
2023/12/12 10:20:12;;;;;;;549.30;288.38;;;;;;;9.08;100.00;97175.09;5021274;28;20035;-56
2023/12/12 10:22:37;;;;;;;608.25;295.77;;;;;;;9.08;100.00;97175.09;5021058;28;20325;-56
2023/12/12 10:25:14;;;;;;;528.58;287.48;;;;;;;9.27;100.00;97172.31;5023225;28;20075;-54
2023/12/12 10:27:43;;;;;;;670.33;301.10;;;;;;;9.42;100.00;97176.47;5020611;28;20033;-56
2023/12/12 10:30:12;;;;;;;514.17;291.80;;;;;;;9.53;100.00;97173.75;5022027;28;20017;-55
2023/12/12 10:32:38;;;;;;;674.97;303.23;;;;;;;10.24;100.00;97169.31;5020644;28;20400;-57
2023/12/12 10:35:03;;;;;;;551.33;297.45;;;;;;;10.29;100.00;97155.34;5021836;28;20480;-56
2023/12/12 10:37:29;;;;;;;539.13;294.65;;;;;;;10.32;100.00;97151.84;5021703;28;20067;-54
2023/12/12 10:39:54;;;;;;;583.03;296.05;;;;;;;10.34;100.00;97154.41;5019163;28;20437;-56
2023/12/12 10:42:20;;;;;;;574.60;296.92;;;;;;;10.28;100.00;97150.16;5021522;28;20037;-54
2023/12/12 10:44:47;;;;;;;643.75;300.95;;;;;;;10.32;100.00;97143.22;5021729;28;20075;-54
2023/12/12 10:47:14;;;;;;;560.63;294.00;;;;;;;10.69;100.00;97145.19;5021833;28;20045;-55
2023/12/12 10:49:43;;;;;;;659.88;302.50;;;;;;;10.71;100.00;97146.06;5020267;28;20024;-53
2023/12/12 10:52:10;;;;;;;552.17;291.50;;;;;;;10.73;100.00;97144.25;5022261;28;20130;-54
2023/12/12 10:54:36;;;;;;;623.60;300.48;;;;;;;10.78;100.00;97139.00;5020065;28;20421;-55